sensor_id;sensor_type;location;lat;lon;timestamp;pressure;altitude;pressure_sealevel;temperature;humidity
57192;BME280;43052;52.588;13.396;2024-02-21T00:00:51;101608.81;;;8.51;82.50
57192;BME280;43052;52.588;13.396;2024-02-21T00:03:17;101598.38;;;8.48;82.58
57192;BME280;43052;52.588;13.396;2024-02-21T00:05:42;101596.50;;;8.43;82.48
57192;BME280;43052;52.588;13.396;2024-02-21T00:08:08;101597.38;;;8.42;82.42
57192;BME280;43052;52.588;13.396;2024-02-21T00:10:33;101598.25;;;8.41;82.27
57192;BME280;43052;52.588;13.396;2024-02-21T00:13:00;101593.03;;;8.43;82.30
57192;BME280;43052;52.588;13.396;2024-02-21T00:15:26;101594.69;;;8.38;82.32
57192;BME280;43052;52.588;13.396;2024-02-21T00:17:51;101593.84;;;8.39;82.20
57192;BME280;43052;52.588;13.396;2024-02-21T00:20:17;101589.47;;;8.38;82.30
57192;BME280;43052;52.588;13.396;2024-02-21T00:22:43;101583.38;;;8.36;82.38
57192;BME280;43052;52.588;13.396;2024-02-21T00:25:09;101581.66;;;8.38;82.15
57192;BME280;43052;52.588;13.396;2024-02-21T00:27:34;101585.16;;;8.40;82.32
57192;BME280;43052;52.588;13.396;2024-02-21T00:30:00;101585.16;;;8.38;82.24
57192;BME280;43052;52.588;13.396;2024-02-21T00:32:25;101573.72;;;8.31;82.08
57192;BME280;43052;52.588;13.396;2024-02-21T00:34:51;101573.75;;;8.33;82.30
57192;BME280;43052;52.588;13.396;2024-02-21T00:37:16;101576.34;;;8.33;82.17
57192;BME280;43052;52.588;13.396;2024-02-21T00:39:42;101568.53;;;8.31;82.32
57192;BME280;43052;52.588;13.396;2024-02-21T00:42:07;101573.75;;;8.33;82.35
57192;BME280;43052;52.588;13.396;2024-02-21T00:44:33;101571.13;;;8.30;82.21
57192;BME280;43052;52.588;13.396;2024-02-21T00:46:58;101565.00;;;8.28;82.32
57192;BME280;43052;52.588;13.396;2024-02-21T00:49:24;101570.25;;;8.31;82.40
57192;BME280;43052;52.588;13.396;2024-02-21T00:51:49;101557.09;;;8.25;82.27
57192;BME280;43052;52.588;13.396;2024-02-21T00:54:15;101557.09;;;8.25;82.37
57192;BME280;43052;52.588;13.396;2024-02-21T00:56:41;101557.09;;;8.23;82.15
57192;BME280;43052;52.588;13.396;2024-02-21T00:59:06;101549.28;;;8.23;82.13
57192;BME280;43052;52.588;13.396;2024-02-21T01:01:32;101560.69;;;8.28;82.18
57192;BME280;43052;52.588;13.396;2024-02-21T01:03:57;101551.03;;;8.24;82.30
57192;BME280;43052;52.588;13.396;2024-02-21T01:06:23;101550.19;;;8.24;82.32
57192;BME280;43052;52.588;13.396;2024-02-21T01:08:49;101545.75;;;8.21;82.02
57192;BME280;43052;52.588;13.396;2024-02-21T01:11:15;101555.41;;;8.25;81.94
57192;BME280;43052;52.588;13.396;2024-02-21T01:13:41;101547.50;;;8.21;82.09
57192;BME280;43052;52.588;13.396;2024-02-21T01:16:07;101547.44;;;8.18;82.36
57192;BME280;43052;52.588;13.396;2024-02-21T01:18:33;101548.34;;;8.20;82.23
57192;BME280;43052;52.588;13.396;2024-02-21T01:20:59;101543.13;;;8.20;82.38
57192;BME280;43052;52.588;13.396;2024-02-21T01:23:24;101541.44;;;8.22;82.19
57192;BME280;43052;52.588;13.396;2024-02-21T01:25:50;101539.75;;;8.25;82.31
57192;BME280;43052;52.588;13.396;2024-02-21T01:28:16;101535.47;;;8.29;82.02
57192;BME280;43052;52.588;13.396;2024-02-21T01:30:41;101529.41;;;8.30;82.17
57192;BME280;43052;52.588;13.396;2024-02-21T01:33:07;101531.19;;;8.34;82.06
57192;BME280;43052;52.588;13.396;2024-02-21T01:35:33;101523.44;;;8.37;82.22
57192;BME280;43052;52.588;13.396;2024-02-21T01:37:59;101524.44;;;8.44;81.99
57192;BME280;43052;52.588;13.396;2024-02-21T01:40:24;101520.25;;;8.52;81.59
57192;BME280;43052;52.588;13.396;2024-02-21T01:42:50;101516.81;;;8.56;81.53
57192;BME280;43052;52.588;13.396;2024-02-21T01:45:15;101515.97;;;8.57;81.35
57192;BME280;43052;52.588;13.396;2024-02-21T01:47:41;101523.84;;;8.62;81.01
57192;BME280;43052;52.588;13.396;2024-02-21T01:50:07;101521.22;;;8.59;81.25
57192;BME280;43052;52.588;13.396;2024-02-21T01:52:33;101516.00;;;8.60;81.20
57192;BME280;43052;52.588;13.396;2024-02-21T01:55:01;101509.84;;;8.55;80.83
57192;BME280;43052;52.588;13.396;2024-02-21T01:57:26;101510.78;;;8.59;80.76
57192;BME280;43052;52.588;13.396;2024-02-21T01:59:53;101504.69;;;8.58;80.66
57192;BME280;43052;52.588;13.396;2024-02-21T02:02:19;101506.50;;;8.62;80.53
57192;BME280;43052;52.588;13.396;2024-02-21T02:04:45;101504.81;;;8.66;80.32
57192;BME280;43052;52.588;13.396;2024-02-21T02:07:11;101492.63;;;8.65;80.22
57192;BME280;43052;52.588;13.396;2024-02-21T02:09:36;101500.50;;;8.70;80.16
57192;BME280;43052;52.588;13.396;2024-02-21T02:12:02;101488.31;;;8.69;79.96
57192;BME280;43052;52.588;13.396;2024-02-21T02:14:27;101489.16;;;8.66;80.18
57192;BME280;43052;52.588;13.396;2024-02-21T02:16:52;101487.38;;;8.64;79.95
57192;BME280;43052;52.588;13.396;2024-02-21T02:19:18;101483.91;;;8.65;80.08
57192;BME280;43052;52.588;13.396;2024-02-21T02:21:50;101489.22;;;8.72;80.11
57192;BME280;43052;52.588;13.396;2024-02-21T02:24:24;101480.50;;;8.70;80.30
57192;BME280;43052;52.588;13.396;2024-02-21T02:26:50;101485.69;;;8.67;80.54
57192;BME280;43052;52.588;13.396;2024-02-21T02:29:15;101468.16;;;8.57;80.64
57192;BME280;43052;52.588;13.396;2024-02-21T02:31:42;101476.91;;;8.60;81.12
57192;BME280;43052;52.588;13.396;2024-02-21T02:34:09;101462.91;;;8.54;81.64
57192;BME280;43052;52.588;13.396;2024-02-21T02:36:35;101467.25;;;8.53;81.77
57192;BME280;43052;52.588;13.396;2024-02-21T02:39:01;101465.44;;;8.49;81.97
57192;BME280;43052;52.588;13.396;2024-02-21T02:41:27;101468.91;;;8.48;82.42
57192;BME280;43052;52.588;13.396;2024-02-21T02:43:52;101460.16;;;8.46;82.70
57192;BME280;43052;52.588;13.396;2024-02-21T02:46:18;101462.84;;;8.51;82.92
57192;BME280;43052;52.588;13.396;2024-02-21T02:48:43;101449.75;;;8.46;83.14
57192;BME280;43052;52.588;13.396;2024-02-21T02:51:10;101461.97;;;8.49;83.53
57192;BME280;43052;52.588;13.396;2024-02-21T02:53:35;101448.84;;;8.44;83.95
57192;BME280;43052;52.588;13.396;2024-02-21T02:56:01;101449.78;;;8.48;83.89
57192;BME280;43052;52.588;13.396;2024-02-21T02:58:26;101452.31;;;8.44;84.11
57192;BME280;43052;52.588;13.396;2024-02-21T03:00:52;101441.84;;;8.41;84.40
57192;BME280;43052;52.588;13.396;2024-02-21T03:03:17;101436.59;;;8.38;84.57
57192;BME280;43052;52.588;13.396;2024-02-21T03:05:43;101432.22;;;8.36;85.01
57192;BME280;43052;52.588;13.396;2024-02-21T03:08:08;101429.47;;;8.28;86.08
57192;BME280;43052;52.588;13.396;2024-02-21T03:10:34;101428.47;;;8.18;86.52
57192;BME280;43052;52.588;13.396;2024-02-21T03:12:59;101431.03;;;8.15;86.69
57192;BME280;43052;52.588;13.396;2024-02-21T03:15:25;101420.69;;;8.20;86.76
57192;BME280;43052;52.588;13.396;2024-02-21T03:17:50;101426.75;;;8.19;87.20
57192;BME280;43052;52.588;13.396;2024-02-21T03:20:16;101422.38;;;8.18;87.41
57192;BME280;43052;52.588;13.396;2024-02-21T03:22:41;101413.56;;;8.08;87.84
57192;BME280;43052;52.588;13.396;2024-02-21T03:25:08;101414.41;;;8.07;88.36
57192;BME280;43052;52.588;13.396;2024-02-21T03:27:34;101417.00;;;8.05;88.76
57192;BME280;43052;52.588;13.396;2024-02-21T03:29:59;101421.25;;;8.00;88.99
57192;BME280;43052;52.588;13.396;2024-02-21T03:32:25;101417.00;;;8.05;88.94
57192;BME280;43052;52.588;13.396;2024-02-21T03:34:50;101422.25;;;8.08;89.66
57192;BME280;43052;52.588;13.396;2024-02-21T03:37:16;101411.78;;;8.05;89.57
57192;BME280;43052;52.588;13.396;2024-02-21T03:39:42;101413.53;;;8.06;89.74
57192;BME280;43052;52.588;13.396;2024-02-21T03:42:07;101402.28;;;8.09;89.80
57192;BME280;43052;52.588;13.396;2024-02-21T03:44:33;101401.41;;;8.08;90.12
57192;BME280;43052;52.588;13.396;2024-02-21T03:46:59;101390.03;;;8.02;90.07
57192;BME280;43052;52.588;13.396;2024-02-21T03:49:25;101383.94;;;8.01;90.61
57192;BME280;43052;52.588;13.396;2024-02-21T03:51:51;101385.63;;;7.99;90.66
57192;BME280;43052;52.588;13.396;2024-02-21T03:54:16;101388.22;;;7.97;90.86
57192;BME280;43052;52.588;13.396;2024-02-21T03:56:41;101375.97;;;7.90;91.33
57192;BME280;43052;52.588;13.396;2024-02-21T03:59:07;101383.75;;;7.89;91.21
57192;BME280;43052;52.588;13.396;2024-02-21T04:01:34;101375.06;;;7.88;91.64
57192;BME280;43052;52.588;13.396;2024-02-21T04:03:59;101382.94;;;7.93;91.76
57192;BME280;43052;52.588;13.396;2024-02-21T04:06:25;101371.72;;;7.97;91.73
57192;BME280;43052;52.588;13.396;2024-02-21T04:08:50;101373.50;;;7.99;91.93
57192;BME280;43052;52.588;13.396;2024-02-21T04:11:16;101380.50;;;8.04;92.18
57192;BME280;43052;52.588;13.396;2024-02-21T04:13:42;101370.03;;;8.00;92.01
57192;BME280;43052;52.588;13.396;2024-02-21T04:16:08;101357.03;;;8.04;92.46
57192;BME280;43052;52.588;13.396;2024-02-21T04:18:33;101357.03;;;8.04;92.60
57192;BME280;43052;52.588;13.396;2024-02-21T04:20:59;101350.91;;;8.00;92.64
57192;BME280;43052;52.588;13.396;2024-02-21T04:23:24;101345.69;;;7.98;92.91
57192;BME280;43052;52.588;13.396;2024-02-21T04:25:50;101350.06;;;7.99;92.96
57192;BME280;43052;52.588;13.396;2024-02-21T04:28:15;101336.97;;;7.96;93.10
57192;BME280;43052;52.588;13.396;2024-02-21T04:30:41;101341.31;;;7.96;93.48
57192;BME280;43052;52.588;13.396;2024-02-21T04:33:06;101324.78;;;7.94;93.52
57192;BME280;43052;52.588;13.396;2024-02-21T04:35:31;101317.00;;;7.95;93.52
57192;BME280;43052;52.588;13.396;2024-02-21T04:37:57;101319.72;;;8.03;93.78
57192;BME280;43052;52.588;13.396;2024-02-21T04:40:22;101311.00;;;8.03;93.39
57192;BME280;43052;52.588;13.396;2024-02-21T04:42:48;101297.19;;;8.08;93.56
57192;BME280;43052;52.588;13.396;2024-02-21T04:45:13;101295.44;;;8.07;93.29
57192;BME280;43052;52.588;13.396;2024-02-21T04:47:39;101304.19;;;8.11;93.56
57192;BME280;43052;52.588;13.396;2024-02-21T04:50:05;101300.69;;;8.10;93.55
57192;BME280;43052;52.588;13.396;2024-02-21T04:52:31;101286.75;;;8.05;93.65
57192;BME280;43052;52.588;13.396;2024-02-21T04:54:56;101297.19;;;8.08;93.59
57192;BME280;43052;52.588;13.396;2024-02-21T04:57:22;101291.13;;;8.06;93.91
57192;BME280;43052;52.588;13.396;2024-02-21T04:59:47;101291.06;;;8.05;94.00
57192;BME280;43052;52.588;13.396;2024-02-21T05:02:13;101300.66;;;8.07;93.60
57192;BME280;43052;52.588;13.396;2024-02-21T05:04:39;101285.00;;;8.04;93.91
57192;BME280;43052;52.588;13.396;2024-02-21T05:07:06;101294.59;;;8.07;94.00
57192;BME280;43052;52.588;13.396;2024-02-21T05:09:32;101296.34;;;8.08;93.96
57192;BME280;43052;52.588;13.396;2024-02-21T05:11:57;101290.28;;;8.10;93.93
57192;BME280;43052;52.588;13.396;2024-02-21T05:14:26;101290.28;;;8.10;93.62
57192;BME280;43052;52.588;13.396;2024-02-21T05:16:55;101291.25;;;8.19;93.56
57192;BME280;43052;52.588;13.396;2024-02-21T05:19:20;101272.91;;;8.09;93.77
57192;BME280;43052;52.588;13.396;2024-02-21T05:21:46;101281.63;;;8.11;93.69
57192;BME280;43052;52.588;13.396;2024-02-21T05:24:11;101290.34;;;8.16;93.75
57192;BME280;43052;52.588;13.396;2024-02-21T05:26:37;101287.66;;;8.09;93.72
57192;BME280;43052;52.588;13.396;2024-02-21T05:29:02;101278.94;;;8.05;94.00
57192;BME280;43052;52.588;13.396;2024-02-21T05:34:20;101280.59;;;8.00;94.00
57192;BME280;43052;52.588;13.396;2024-02-21T05:36:46;101284.09;;;8.04;94.14
57192;BME280;43052;52.588;13.396;2024-02-21T05:39:12;101288.53;;;8.08;94.12
57192;BME280;43052;52.588;13.396;2024-02-21T05:41:38;101285.97;;;8.12;93.76
57192;BME280;43052;52.588;13.396;2024-02-21T05:44:03;101273.81;;;8.11;93.79
57192;BME280;43052;52.588;13.396;2024-02-21T05:46:29;101276.53;;;8.19;93.87
57192;BME280;43052;52.588;13.396;2024-02-21T05:48:55;101262.56;;;8.15;93.67
57192;BME280;43052;52.588;13.396;2024-02-21T05:51:20;101265.13;;;8.11;93.72
57192;BME280;43052;52.588;13.396;2024-02-21T05:53:46;101261.63;;;8.09;93.62
57192;BME280;43052;52.588;13.396;2024-02-21T05:56:11;101262.53;;;8.12;94.02
57192;BME280;43052;52.588;13.396;2024-02-21T05:58:37;101245.94;;;8.06;93.79
57192;BME280;43052;52.588;13.396;2024-02-21T06:01:03;101252.03;;;8.06;93.62
57192;BME280;43052;52.588;13.396;2024-02-21T06:03:32;101256.41;;;8.09;93.64
57192;BME280;43052;52.588;13.396;2024-02-21T06:05:57;101258.13;;;8.07;93.97
57192;BME280;43052;52.588;13.396;2024-02-21T06:08:23;101249.44;;;8.06;93.94
57192;BME280;43052;52.588;13.396;2024-02-21T06:10:48;101248.59;;;8.10;93.75
57192;BME280;43052;52.588;13.396;2024-02-21T06:13:14;101246.06;;;8.13;93.83
57192;BME280;43052;52.588;13.396;2024-02-21T06:15:40;101239.94;;;8.11;93.78
57192;BME280;43052;52.588;13.396;2024-02-21T06:18:05;101250.41;;;8.14;93.91
57192;BME280;43052;52.588;13.396;2024-02-21T06:20:31;101235.56;;;8.10;94.02
57192;BME280;43052;52.588;13.396;2024-02-21T06:22:57;101239.03;;;8.09;93.91
57192;BME280;43052;52.588;13.396;2024-02-21T06:25:22;101245.22;;;8.16;93.58
57192;BME280;43052;52.588;13.396;2024-02-21T06:27:48;101220.84;;;8.14;93.73
57192;BME280;43052;52.588;13.396;2024-02-21T06:30:13;101234.84;;;8.19;93.60
57192;BME280;43052;52.588;13.396;2024-02-21T06:32:39;101232.97;;;8.10;93.74
57192;BME280;43052;52.588;13.396;2024-02-21T06:35:05;101246.13;;;8.21;93.64
57192;BME280;43052;52.588;13.396;2024-02-21T06:37:30;101245.25;;;8.19;93.38
57192;BME280;43052;52.588;13.396;2024-02-21T06:39:57;101248.72;;;8.20;93.27
57192;BME280;43052;52.588;13.396;2024-02-21T06:42:25;101242.59;;;8.18;93.29
57192;BME280;43052;52.588;13.396;2024-02-21T06:44:51;101251.38;;;8.26;93.27
57192;BME280;43052;52.588;13.396;2024-02-21T06:47:16;101255.78;;;8.30;93.25
57192;BME280;43052;52.588;13.396;2024-02-21T06:49:42;101257.63;;;8.37;93.14
57192;BME280;43052;52.588;13.396;2024-02-21T06:52:07;101253.25;;;8.35;93.10
57192;BME280;43052;52.588;13.396;2024-02-21T06:54:33;101246.38;;;8.43;93.12
57192;BME280;43052;52.588;13.396;2024-02-21T06:56:58;101253.41;;;8.47;92.72
57192;BME280;43052;52.588;13.396;2024-02-21T06:59:24;101251.69;;;8.49;92.59
57192;BME280;43052;52.588;13.396;2024-02-21T07:01:52;101258.66;;;8.50;92.42
57192;BME280;43052;52.588;13.396;2024-02-21T07:04:18;101250.84;;;8.50;92.36
57192;BME280;43052;52.588;13.396;2024-02-21T07:06:43;101247.28;;;8.46;92.40
57192;BME280;43052;52.588;13.396;2024-02-21T07:09:09;101251.69;;;8.48;92.53
57192;BME280;43052;52.588;13.396;2024-02-21T07:11:34;101247.25;;;8.43;92.53
57192;BME280;43052;52.588;13.396;2024-02-21T07:14:00;101245.63;;;8.49;92.42
57192;BME280;43052;52.588;13.396;2024-02-21T07:16:28;101249.97;;;8.51;92.34
57192;BME280;43052;52.588;13.396;2024-02-21T07:18:55;101252.63;;;8.54;91.87
57192;BME280;43052;52.588;13.396;2024-02-21T07:21:20;101242.22;;;8.56;91.84
57192;BME280;43052;52.588;13.396;2024-02-21T07:23:46;101250.06;;;8.59;91.39
57192;BME280;43052;52.588;13.396;2024-02-21T07:26:11;101245.72;;;8.58;91.87
57192;BME280;43052;52.588;13.396;2024-02-21T07:28:37;101235.28;;;8.61;91.26
57192;BME280;43052;52.588;13.396;2024-02-21T07:31:03;101250.22;;;8.74;90.97
57192;BME280;43052;52.588;13.396;2024-02-21T07:33:28;101239.81;;;8.77;90.82
57192;BME280;43052;52.588;13.396;2024-02-21T07:35:56;101252.91;;;8.84;90.89
57192;BME280;43052;52.588;13.396;2024-02-21T07:38:21;101246.81;;;8.83;90.62
57192;BME280;43052;52.588;13.396;2024-02-21T07:40:47;101247.72;;;8.84;90.05
57192;BME280;43052;52.588;13.396;2024-02-21T07:43:13;101252.97;;;8.90;90.01
57192;BME280;43052;52.588;13.396;2024-02-21T07:45:38;101245.13;;;8.88;89.84
57192;BME280;43052;52.588;13.396;2024-02-21T07:48:07;101241.59;;;8.82;89.79
57192;BME280;43052;52.588;13.396;2024-02-21T07:50:33;101246.84;;;8.86;89.77
57192;BME280;43052;52.588;13.396;2024-02-21T07:52:58;101241.63;;;8.86;89.41
57192;BME280;43052;52.588;13.396;2024-02-21T07:55:24;101241.72;;;8.94;89.02
57192;BME280;43052;52.588;13.396;2024-02-21T07:57:49;101246.00;;;8.90;88.99
57192;BME280;43052;52.588;13.396;2024-02-21T08:00:15;101232.06;;;8.87;89.22
57192;BME280;43052;52.588;13.396;2024-02-21T08:02:48;101235.59;;;8.92;88.86
57192;BME280;43052;52.588;13.396;2024-02-21T08:05:14;101247.00;;;9.03;88.53
57192;BME280;43052;52.588;13.396;2024-02-21T08:07:40;101229.63;;;9.02;88.09
57192;BME280;43052;52.588;13.396;2024-02-21T08:10:05;101231.38;;;9.08;88.31
57192;BME280;43052;52.588;13.396;2024-02-21T08:12:33;101233.22;;;9.23;88.03
57192;BME280;43052;52.588;13.396;2024-02-21T08:14:59;101233.31;;;9.31;87.57
57192;BME280;43052;52.588;13.396;2024-02-21T08:17:24;101232.44;;;9.32;87.43
57192;BME280;43052;52.588;13.396;2024-02-21T08:19:49;101228.97;;;9.33;87.33
57192;BME280;43052;52.588;13.396;2024-02-21T08:22:15;101229.03;;;9.44;86.69
57192;BME280;43052;52.588;13.396;2024-02-21T08:24:41;101242.13;;;9.50;86.35
57192;BME280;43052;52.588;13.396;2024-02-21T08:27:06;101232.53;;;9.47;86.29
57192;BME280;43052;52.588;13.396;2024-02-21T08:29:32;101239.53;;;9.53;85.66
57192;BME280;43052;52.588;13.396;2024-02-21T08:31:57;101230.84;;;9.54;85.41
57192;BME280;43052;52.588;13.396;2024-02-21T08:34:23;101222.19;;;9.61;85.73
57192;BME280;43052;52.588;13.396;2024-02-21T08:36:48;101231.91;;;9.85;85.39
57192;BME280;43052;52.588;13.396;2024-02-21T08:39:14;101225.94;;;10.16;84.66
57192;BME280;43052;52.588;13.396;2024-02-21T08:41:42;101233.03;;;10.54;83.80
57192;BME280;43052;52.588;13.396;2024-02-21T08:44:08;101223.50;;;10.78;82.10
57192;BME280;43052;52.588;13.396;2024-02-21T08:46:33;101227.88;;;10.93;81.61
57192;BME280;43052;52.588;13.396;2024-02-21T08:48:59;101218.22;;;11.20;80.97
57192;BME280;43052;52.588;13.396;2024-02-21T08:51:25;101223.44;;;11.43;79.74
57192;BME280;43052;52.588;13.396;2024-02-21T08:53:50;101223.47;;;11.34;77.95
57192;BME280;43052;52.588;13.396;2024-02-21T08:56:16;101220.00;;;11.18;78.12
57192;BME280;43052;52.588;13.396;2024-02-21T08:58:43;101230.47;;;11.07;78.52
57192;BME280;43052;52.588;13.396;2024-02-21T09:01:08;101227.88;;;11.04;79.07
57192;BME280;43052;52.588;13.396;2024-02-21T09:03:37;101233.97;;;11.17;78.17
57192;BME280;43052;52.588;13.396;2024-02-21T09:06:06;101226.13;;;11.12;77.99
57192;BME280;43052;52.588;13.396;2024-02-21T09:08:32;101230.47;;;10.99;78.11
57192;BME280;43052;52.588;13.396;2024-02-21T09:10:58;101230.47;;;10.90;77.92
57192;BME280;43052;52.588;13.396;2024-02-21T09:13:24;101236.56;;;10.90;78.13
57192;BME280;43052;52.588;13.396;2024-02-21T09:15:50;101227.84;;;10.85;78.02
57192;BME280;43052;52.588;13.396;2024-02-21T09:18:16;101231.34;;;10.93;78.00
57192;BME280;43052;52.588;13.396;2024-02-21T09:20:42;101227.88;;;10.99;77.67
57192;BME280;43052;52.588;13.396;2024-02-21T09:23:08;101224.38;;;10.95;76.82
57192;BME280;43052;52.588;13.396;2024-02-21T09:25:34;101220.00;;;10.94;76.76
57192;BME280;43052;52.588;13.396;2024-02-21T09:28:01;101219.16;;;10.95;76.31
57192;BME280;43052;52.588;13.396;2024-02-21T09:30:27;101204.31;;;11.08;77.02
57192;BME280;43052;52.588;13.396;2024-02-21T09:32:52;101206.91;;;11.22;76.69
57192;BME280;43052;52.588;13.396;2024-02-21T09:35:18;101209.44;;;11.59;76.56
57192;BME280;43052;52.588;13.396;2024-02-21T09:37:43;101197.97;;;12.04;74.69
57192;BME280;43052;52.588;13.396;2024-02-21T09:40:09;101197.84;;;12.33;71.86
57192;BME280;43052;52.588;13.396;2024-02-21T09:42:40;101198.63;;;12.46;71.07
57192;BME280;43052;52.588;13.396;2024-02-21T09:45:22;101208.13;;;12.61;70.19
57192;BME280;43052;52.588;13.396;2024-02-21T09:50:45;101198.59;;;12.49;68.64
57192;BME280;43052;52.588;13.396;2024-02-21T09:53:12;101200.44;;;12.35;69.03
57192;BME280;43052;52.588;13.396;2024-02-21T09:55:39;101196.19;;;12.11;69.35
57192;BME280;43052;52.588;13.396;2024-02-21T09:58:07;101205.84;;;12.02;69.84
57192;BME280;43052;52.588;13.396;2024-02-21T10:00:36;101191.88;;;11.94;69.93
57192;BME280;43052;52.588;13.396;2024-02-21T10:03:02;101200.59;;;11.95;69.76
57192;BME280;43052;52.588;13.396;2024-02-21T10:05:37;101204.13;;;11.89;70.40
57192;BME280;43052;52.588;13.396;2024-02-21T10:08:03;101191.91;;;11.88;71.00
57192;BME280;43052;52.588;13.396;2024-02-21T10:10:29;101192.75;;;12.01;71.03
57192;BME280;43052;52.588;13.396;2024-02-21T10:12:55;101192.69;;;12.09;70.56
57192;BME280;43052;52.588;13.396;2024-02-21T10:15:22;101197.88;;;12.22;70.06
57192;BME280;43052;52.588;13.396;2024-02-21T10:17:49;101192.66;;;12.21;69.76
57192;BME280;43052;52.588;13.396;2024-02-21T10:20:15;101194.38;;;12.27;70.11
57192;BME280;43052;52.588;13.396;2024-02-21T10:22:41;101198.59;;;12.52;69.22
57192;BME280;43052;52.588;13.396;2024-02-21T10:25:11;101185.41;;;12.59;68.93
57192;BME280;43052;52.588;13.396;2024-02-21T10:27:38;101200.09;;;12.86;68.31
57192;BME280;43052;52.588;13.396;2024-02-21T10:30:08;101187.38;;;13.36;67.23
57192;BME280;43052;52.588;13.396;2024-02-21T10:32:49;101192.13;;;13.84;65.11
57192;BME280;43052;52.588;13.396;2024-02-21T10:37:54;101198.94;;;13.99;63.93
57192;BME280;43052;52.588;13.396;2024-02-21T10:40:25;101204.59;;;13.68;63.59
57192;BME280;43052;52.588;13.396;2024-02-21T10:43:01;101194.38;;;13.36;63.57
57192;BME280;43052;52.588;13.396;2024-02-21T10:47:56;101180.16;;;12.62;65.73
57192;BME280;43052;52.588;13.396;2024-02-21T10:50:30;101184.59;;;12.47;66.00
57192;BME280;43052;52.588;13.396;2024-02-21T10:53:13;101181.16;;;12.42;66.49
57192;BME280;43052;52.588;13.396;2024-02-21T10:55:49;101174.25;;;12.30;66.71
57192;BME280;43052;52.588;13.396;2024-02-21T10:58:18;101182.13;;;12.22;67.05
57192;BME280;43052;52.588;13.396;2024-02-21T11:00:44;101173.47;;;12.13;67.60
57192;BME280;43052;52.588;13.396;2024-02-21T11:03:09;101183.94;;;12.14;68.07
57192;BME280;43052;52.588;13.396;2024-02-21T11:05:36;101164.78;;;12.01;68.75
57192;BME280;43052;52.588;13.396;2024-02-21T11:08:03;101167.44;;;11.90;69.83
57192;BME280;43052;52.588;13.396;2024-02-21T11:10:30;101160.44;;;11.89;70.66
57192;BME280;43052;52.588;13.396;2024-02-21T11:13:08;101162.19;;;11.98;71.06
57192;BME280;43052;52.588;13.396;2024-02-21T11:15:34;101155.09;;;12.17;70.83
57192;BME280;43052;52.588;13.396;2024-02-21T11:17:59;101152.31;;;12.39;70.89
57192;BME280;43052;52.588;13.396;2024-02-21T11:20:37;101146.88;;;12.68;70.35
57192;BME280;43052;52.588;13.396;2024-02-21T11:23:03;101136.31;;;12.75;69.43
57192;BME280;43052;52.588;13.396;2024-02-21T11:25:29;101133.69;;;12.78;68.82
57192;BME280;43052;52.588;13.396;2024-02-21T11:28:00;101130.91;;;12.92;68.62
57192;BME280;43052;52.588;13.396;2024-02-21T11:30:31;101131.56;;;13.15;68.21
57192;BME280;43052;52.588;13.396;2024-02-21T11:33:00;101128.78;;;13.31;67.33
57192;BME280;43052;52.588;13.396;2024-02-21T11:35:30;101124.31;;;13.41;67.30
57192;BME280;43052;52.588;13.396;2024-02-21T11:37:56;101109.13;;;13.66;66.96
57192;BME280;43052;52.588;13.396;2024-02-21T11:40:22;101106.78;;;14.08;65.70
57192;BME280;43052;52.588;13.396;2024-02-21T11:42:48;101098.59;;;14.30;64.92
57192;BME280;43052;52.588;13.396;2024-02-21T11:45:14;101088.75;;;14.41;64.61
57192;BME280;43052;52.588;13.396;2024-02-21T11:47:42;101083.97;;;14.67;63.40
57192;BME280;43052;52.588;13.396;2024-02-21T11:50:11;101080.34;;;14.74;62.25
57192;BME280;43052;52.588;13.396;2024-02-21T11:52:36;101080.38;;;14.72;62.47
57192;BME280;43052;52.588;13.396;2024-02-21T11:55:02;101077.09;;;14.56;62.92
57192;BME280;43052;52.588;13.396;2024-02-21T11:57:30;101078.22;;;14.41;61.97
57192;BME280;43052;52.588;13.396;2024-02-21T11:59:55;101069.66;;;14.30;61.61
57192;BME280;43052;52.588;13.396;2024-02-21T12:02:20;101066.06;;;14.34;62.29
57192;BME280;43052;52.588;13.396;2024-02-21T12:04:46;101070.09;;;14.57;61.65
57192;BME280;43052;52.588;13.396;2024-02-21T12:07:12;101063.13;;;14.54;61.59
57192;BME280;43052;52.588;13.396;2024-02-21T12:09:41;101063.91;;;14.60;61.33
57192;BME280;43052;52.588;13.396;2024-02-21T12:12:07;101049.06;;;14.54;61.36
57192;BME280;43052;52.588;13.396;2024-02-21T12:14:34;101059.72;;;14.48;60.77
57192;BME280;43052;52.588;13.396;2024-02-21T12:17:00;101052.63;;;14.51;60.88
57192;BME280;43052;52.588;13.396;2024-02-21T12:19:28;101048.47;;;14.38;60.90
57192;BME280;43052;52.588;13.396;2024-02-21T12:21:54;101040.56;;;14.39;60.93
57192;BME280;43052;52.588;13.396;2024-02-21T12:24:25;101031.50;;;14.56;60.79
57192;BME280;43052;52.588;13.396;2024-02-21T12:26:51;101027.69;;;14.74;59.89
57192;BME280;43052;52.588;13.396;2024-02-21T12:29:20;101021.28;;;14.89;59.65
57192;BME280;43052;52.588;13.396;2024-02-21T12:31:46;101015.81;;;14.98;59.37
57192;BME280;43052;52.588;13.396;2024-02-21T12:34:11;101013.72;;;15.16;59.12
57192;BME280;43052;52.588;13.396;2024-02-21T12:36:44;101021.38;;;15.28;59.10
57192;BME280;43052;52.588;13.396;2024-02-21T12:39:13;101012.34;;;15.40;58.50
57192;BME280;43052;52.588;13.396;2024-02-21T12:41:39;101006.47;;;15.26;57.92
57192;BME280;43052;52.588;13.396;2024-02-21T12:44:06;100999.00;;;15.06;57.98
57192;BME280;43052;52.588;13.396;2024-02-21T12:46:35;100998.81;;;14.71;58.63
57192;BME280;43052;52.588;13.396;2024-02-21T12:49:04;100991.75;;;14.21;59.47
57192;BME280;43052;52.588;13.396;2024-02-21T12:51:31;100995.78;;;13.89;59.78
57192;BME280;43052;52.588;13.396;2024-02-21T12:53:56;100999.38;;;13.84;60.72